createdAt,value
2023-04-17T00:00:31.287Z,11.08
2023-04-17T00:03:01.838Z,11.07
2023-04-17T00:05:32.126Z,11.05
2023-04-17T00:08:01.676Z,11.02
2023-04-17T00:10:30.020Z,11.00
2023-04-17T00:12:57.935Z,10.98
2023-04-17T00:15:26.421Z,10.97
2023-04-17T00:17:55.668Z,10.96
2023-04-17T00:20:23.887Z,10.95
2023-04-17T00:22:51.789Z,10.95
2023-04-17T00:25:19.677Z,10.94
2023-04-17T00:27:47.499Z,10.94
2023-04-17T00:30:15.470Z,10.92
2023-04-17T00:32:44.592Z,10.91
2023-04-17T00:35:12.667Z,10.88
2023-04-17T00:37:41.019Z,10.85
2023-04-17T00:40:10.833Z,10.85
2023-04-17T00:42:38.767Z,10.85
2023-04-17T00:45:10.881Z,10.85
2023-04-17T00:47:39.404Z,10.86
2023-04-17T00:50:07.733Z,10.86
2023-04-17T00:52:35.977Z,10.84
2023-04-17T00:55:04.385Z,10.81
2023-04-17T00:57:32.358Z,10.77
2023-04-17T01:00:00.410Z,10.74
2023-04-17T01:02:28.411Z,10.72
2023-04-17T01:04:56.984Z,10.68
2023-04-17T01:07:24.924Z,10.66
2023-04-17T01:09:52.932Z,10.65
2023-04-17T01:12:22.123Z,10.66
2023-04-17T01:14:53.552Z,10.65
2023-04-17T01:17:21.975Z,10.63
2023-04-17T01:19:50.230Z,10.64
2023-04-17T01:22:18.467Z,10.63
2023-04-17T01:24:46.849Z,10.62
2023-04-17T01:27:15.468Z,10.61
2023-04-17T01:29:45.083Z,10.61
2023-04-17T01:32:13.118Z,10.60
2023-04-17T01:34:41.076Z,10.60
2023-04-17T01:37:09.411Z,10.61
2023-04-17T01:39:37.885Z,10.62
2023-04-17T01:42:06.331Z,10.62
2023-04-17T01:44:34.343Z,10.62
2023-04-17T01:47:02.111Z,10.62
2023-04-17T01:49:30.970Z,10.61
2023-04-17T01:51:58.929Z,10.62
2023-04-17T01:54:26.920Z,10.62
2023-04-17T01:56:55.485Z,10.61
2023-04-17T01:59:23.657Z,10.60
2023-04-17T02:01:51.705Z,10.57
2023-04-17T02:04:20.451Z,10.53
2023-04-17T02:06:49.028Z,10.53
2023-04-17T02:09:19.135Z,10.52
2023-04-17T02:11:47.298Z,10.48
2023-04-17T02:14:18.053Z,10.46
2023-04-17T02:16:46.052Z,10.43
2023-04-17T02:19:14.043Z,10.37
2023-04-17T02:21:42.233Z,10.33
2023-04-17T02:24:10.454Z,10.32
2023-04-17T02:26:38.686Z,10.32
2023-04-17T02:29:06.874Z,10.33
2023-04-17T02:31:34.897Z,10.34
2023-04-17T02:34:03.311Z,10.36
2023-04-17T02:36:31.414Z,10.38
2023-04-17T02:38:59.378Z,10.40
2023-04-17T02:41:27.496Z,10.41
2023-04-17T02:43:56.755Z,10.37
2023-04-17T02:46:24.643Z,10.34
2023-04-17T02:48:52.899Z,10.30
2023-04-17T02:51:21.987Z,10.26
2023-04-17T02:53:50.253Z,10.22
2023-04-17T02:56:18.544Z,10.21
2023-04-17T02:58:46.601Z,10.20
2023-04-17T03:01:14.686Z,10.18
2023-04-17T03:03:45.144Z,10.14
2023-04-17T03:06:14.564Z,10.11
2023-04-17T03:08:42.535Z,10.08
2023-04-17T03:11:10.470Z,10.07
2023-04-17T03:13:38.306Z,10.04
2023-04-17T03:16:06.729Z,10.00
2023-04-17T03:18:38.068Z,9.95
2023-04-17T03:21:06.116Z,9.92
2023-04-17T03:23:34.617Z,9.91
2023-04-17T03:26:02.651Z,9.88
2023-04-17T03:28:32.553Z,9.84
2023-04-17T03:31:01.995Z,9.80
2023-04-17T03:33:31.808Z,9.78
2023-04-17T03:35:59.883Z,9.78
2023-04-17T03:38:27.846Z,9.79
2023-04-17T03:40:56.176Z,9.78
2023-04-17T03:43:25.299Z,9.78
2023-04-17T03:45:53.190Z,9.78
2023-04-17T03:48:22.188Z,9.77
2023-04-17T03:50:51.256Z,9.74
2023-04-17T03:53:19.769Z,9.70
2023-04-17T03:55:48.143Z,9.69
2023-04-17T03:58:24.684Z,9.66
2023-04-17T04:00:55.661Z,9.64
2023-04-17T04:03:26.825Z,9.61
2023-04-17T04:05:55.418Z,9.61
2023-04-17T04:08:23.854Z,9.60
2023-04-17T04:10:53.263Z,9.58
2023-04-17T04:13:34.907Z,9.57
2023-04-17T04:16:03.651Z,9.57
2023-04-17T04:18:32.866Z,9.59
2023-04-17T04:21:01.001Z,9.61
2023-04-17T04:23:33.774Z,9.60
2023-04-17T04:26:02.156Z,9.61
2023-04-17T04:28:38.309Z,9.62
2023-04-17T04:31:10.121Z,9.64
2023-04-17T04:33:40.519Z,9.67
2023-04-17T04:36:08.652Z,9.69
2023-04-17T04:38:38.065Z,9.68
2023-04-17T04:41:15.081Z,9.67
2023-04-17T04:43:44.094Z,9.68
2023-04-17T04:46:12.399Z,9.69
2023-04-17T04:48:44.102Z,9.69
2023-04-17T04:51:13.631Z,9.71
2023-04-17T04:53:41.670Z,9.71
2023-04-17T04:56:09.813Z,9.75
2023-04-17T04:58:38.940Z,9.77
2023-04-17T05:01:07.880Z,9.78
2023-04-17T05:03:40.834Z,9.79
2023-04-17T05:06:11.247Z,9.78
2023-04-17T05:08:42.190Z,9.78
2023-04-17T05:11:11.758Z,9.75
2023-04-17T05:13:39.658Z,9.74
2023-04-17T05:16:09.750Z,9.73
2023-04-17T05:18:37.591Z,9.75
2023-04-17T05:21:05.754Z,9.74
2023-04-17T05:23:33.894Z,9.71
2023-04-17T05:26:02.707Z,9.71
2023-04-17T05:28:31.116Z,9.73
2023-04-17T05:30:59.269Z,9.74
2023-04-17T05:33:34.629Z,9.76
2023-04-17T05:36:04.082Z,9.78
2023-04-17T05:38:33.779Z,9.81
2023-04-17T05:41:02.205Z,9.84
2023-04-17T05:43:30.440Z,9.87
2023-04-17T05:45:58.417Z,9.90
2023-04-17T05:48:26.412Z,9.92
2023-04-17T05:50:54.279Z,9.94
2023-04-17T05:53:23.037Z,9.94
2023-04-17T05:55:54.393Z,9.91
2023-04-17T05:58:24.080Z,9.89
2023-04-17T06:00:55.859Z,9.89
2023-04-17T06:03:24.468Z,9.90
2023-04-17T06:05:58.493Z,9.90
2023-04-17T06:08:28.182Z,9.89
2023-04-17T06:10:56.290Z,9.91
2023-04-17T06:13:24.914Z,9.93
2023-04-17T06:15:53.086Z,9.97
2023-04-17T06:18:21.068Z,10.00
2023-04-17T06:20:48.997Z,10.01
2023-04-17T06:23:17.792Z,10.03
2023-04-17T06:25:45.764Z,10.07
2023-04-17T06:28:13.806Z,10.12
2023-04-17T06:30:41.873Z,10.13
2023-04-17T06:33:10.190Z,10.15
2023-04-17T06:35:38.205Z,10.18
2023-04-17T06:38:14.964Z,10.21
2023-04-17T06:40:44.666Z,10.24
2023-04-17T06:43:12.743Z,10.26
2023-04-17T06:45:42.970Z,10.28
2023-04-17T06:48:11.629Z,10.30
2023-04-17T06:50:40.141Z,10.32
2023-04-17T06:53:08.056Z,10.32
2023-04-17T06:55:36.105Z,10.33
2023-04-17T06:58:04.254Z,10.31
2023-04-17T07:00:33.475Z,10.31
2023-04-17T07:03:02.016Z,10.33
2023-04-17T07:05:30.822Z,10.34
2023-04-17T07:07:58.800Z,10.33
2023-04-17T07:10:26.766Z,10.34
2023-04-17T07:12:55.339Z,10.37
2023-04-17T07:15:23.227Z,10.40
2023-04-17T07:17:51.720Z,10.40
2023-04-17T07:20:19.560Z,10.41
2023-04-17T07:22:47.720Z,10.42
2023-04-17T07:25:15.714Z,10.44
2023-04-17T07:27:43.799Z,10.42
2023-04-17T07:30:12.219Z,10.37
2023-04-17T07:32:40.383Z,10.37
2023-04-17T07:35:08.692Z,10.41
2023-04-17T07:37:37.236Z,10.44
2023-04-17T07:40:10.153Z,10.48
2023-04-17T07:42:37.993Z,10.50
2023-04-17T07:45:06.309Z,10.51
2023-04-17T07:47:34.451Z,10.53
2023-04-17T07:50:02.559Z,10.55
2023-04-17T07:52:31.152Z,10.58
2023-04-17T07:54:59.224Z,10.61
2023-04-17T07:57:27.284Z,10.63
2023-04-17T07:59:55.718Z,10.66
2023-04-17T08:02:23.676Z,10.69
2023-04-17T08:04:52.520Z,10.71
2023-04-17T08:07:20.700Z,10.71
2023-04-17T08:09:48.622Z,10.75
2023-04-17T08:12:17.105Z,10.81
2023-04-17T08:14:44.966Z,10.87
2023-04-17T08:17:13.135Z,10.94
2023-04-17T08:19:41.166Z,10.99
2023-04-17T08:22:09.227Z,11.05
2023-04-17T08:24:37.341Z,11.11
2023-04-17T08:27:06.396Z,11.15
2023-04-17T08:29:34.850Z,11.18
2023-04-17T08:32:14.145Z,11.21
2023-04-17T08:34:43.972Z,11.24
2023-04-17T08:37:11.861Z,11.26
2023-04-17T08:39:39.787Z,11.27
2023-04-17T08:42:08.437Z,11.26
2023-04-17T08:44:37.551Z,11.27
2023-04-17T08:47:05.580Z,11.25
2023-04-17T08:49:34.463Z,11.22
2023-04-17T08:52:04.518Z,11.18
2023-04-17T08:54:33.513Z,11.17
2023-04-17T08:57:02.333Z,11.17
2023-04-17T08:59:31.033Z,11.14
2023-04-17T09:02:05.894Z,11.13
2023-04-17T09:04:36.285Z,11.12
2023-04-17T09:07:04.915Z,11.11
2023-04-17T09:09:46.217Z,11.13
2023-04-17T09:12:14.193Z,11.14
2023-04-17T09:14:42.120Z,11.15
2023-04-17T09:17:10.082Z,11.16
2023-04-17T09:19:38.119Z,11.18
2023-04-17T09:22:19.635Z,11.21
2023-04-17T09:24:48.209Z,11.26
2023-04-17T09:27:34.582Z,11.31
2023-04-17T09:30:03.315Z,11.36
2023-04-17T09:32:32.296Z,11.43
2023-04-17T09:35:01.714Z,11.52
2023-04-17T09:37:49.102Z,11.60
2023-04-17T09:40:17.611Z,11.69
2023-04-17T09:42:54.862Z,11.78
2023-04-17T09:45:24.409Z,11.89
2023-04-17T09:47:56.355Z,11.99
2023-04-17T09:50:27.329Z,12.10
2023-04-17T09:52:56.294Z,12.20
2023-04-17T09:55:24.878Z,12.31
2023-04-17T09:57:56.599Z,12.39
2023-04-17T10:00:27.896Z,12.46
2023-04-17T10:02:57.126Z,12.51
2023-04-17T10:05:27.367Z,12.55
2023-04-17T10:07:55.548Z,12.57
2023-04-17T10:10:23.915Z,12.54
2023-04-17T10:12:56.131Z,12.50
2023-04-17T10:15:24.375Z,12.46
2023-04-17T10:17:53.107Z,12.39
2023-04-17T10:20:24.122Z,12.33
2023-04-17T10:23:42.954Z,12.28
2023-04-17T10:26:26.487Z,12.28
2023-04-17T10:28:55.431Z,12.29
2023-04-17T10:31:24.900Z,12.30
2023-04-17T10:33:54.402Z,12.33
2023-04-17T10:36:38.137Z,12.37
2023-04-17T10:39:16.925Z,12.42
2023-04-17T10:42:03.769Z,12.42
2023-04-17T10:44:35.952Z,12.44
2023-04-17T10:49:55.120Z,12.39
2023-04-17T10:52:32.339Z,12.41
2023-04-17T10:55:08.090Z,12.44
2023-04-17T10:58:02.519Z,12.43
2023-04-17T11:00:33.292Z,12.41
2023-04-17T11:03:03.183Z,12.44
2023-04-17T11:05:31.590Z,12.49
2023-04-17T11:07:59.852Z,12.52
2023-04-17T11:10:27.872Z,12.54
2023-04-17T11:12:56.959Z,12.54
2023-04-17T11:15:29.004Z,12.54
2023-04-17T11:17:58.074Z,12.53
2023-04-17T11:20:30.940Z,12.53
2023-04-17T11:23:05.802Z,12.54
2023-04-17T11:25:34.811Z,12.55
2023-04-17T11:28:05.993Z,12.58
2023-04-17T11:30:35.940Z,12.56
2023-04-17T11:33:05.744Z,12.55
2023-04-17T11:35:35.667Z,12.59
2023-04-17T11:38:11.557Z,12.66
2023-04-17T11:40:50.670Z,12.72
2023-04-17T11:43:22.839Z,12.80
2023-04-17T11:45:56.467Z,12.91
2023-04-17T11:48:26.536Z,13.00
2023-04-17T11:50:58.649Z,13.13
2023-04-17T11:53:26.767Z,13.30
2023-04-17T11:56:18.308Z,13.46
2023-04-17T11:58:46.906Z,13.57
2023-04-17T12:01:15.592Z,13.63
2023-04-17T12:03:45.518Z,13.77
2023-04-17T12:06:14.007Z,13.87
2023-04-17T12:08:53.789Z,13.95
2023-04-17T12:11:34.124Z,14.05
2023-04-17T12:14:02.889Z,14.21
2023-04-17T12:16:31.465Z,14.31
2023-04-17T12:18:59.812Z,14.40
2023-04-17T12:21:27.807Z,14.40
2023-04-17T12:23:56.109Z,14.37
2023-04-17T12:26:25.496Z,14.24
2023-04-17T12:28:53.465Z,14.12
2023-04-17T12:31:21.417Z,14.06
2023-04-17T12:33:50.114Z,14.03
2023-04-17T12:36:18.201Z,13.94
2023-04-17T12:38:47.331Z,13.90
2023-04-17T12:41:15.429Z,13.89
2023-04-17T12:43:43.482Z,13.88
2023-04-17T12:46:12.071Z,13.88
2023-04-17T12:48:40.399Z,13.91
2023-04-17T12:51:08.320Z,13.94
2023-04-17T12:53:36.584Z,14.02
2023-04-17T12:56:05.506Z,14.06
2023-04-17T12:58:33.452Z,14.14
2023-04-17T13:01:01.625Z,14.22
2023-04-17T13:03:29.908Z,14.29
2023-04-17T13:05:58.146Z,14.36
2023-04-17T13:08:26.304Z,14.42
2023-04-17T13:10:54.695Z,14.41
2023-04-17T13:13:22.904Z,14.41
2023-04-17T13:15:51.207Z,14.40
2023-04-17T13:18:19.513Z,14.40
2023-04-17T13:20:47.600Z,14.39
2023-04-17T13:23:15.939Z,14.40
2023-04-17T13:25:43.894Z,14.40
2023-04-17T13:28:12.099Z,14.33
2023-04-17T13:30:40.125Z,14.27
2023-04-17T13:33:08.933Z,14.22
2023-04-17T13:35:37.850Z,14.15
2023-04-17T13:38:06.373Z,14.13
2023-04-17T13:40:34.388Z,14.12
2023-04-17T13:43:02.395Z,14.10
2023-04-17T13:45:30.619Z,14.07
2023-04-17T13:48:00.325Z,14.09
2023-04-17T13:50:28.718Z,14.11
2023-04-17T13:52:56.757Z,14.11
2023-04-17T13:55:24.716Z,14.14
2023-04-17T13:57:54.171Z,14.15
2023-04-17T14:00:22.588Z,14.13
2023-04-17T14:02:50.702Z,14.13
2023-04-17T14:05:18.952Z,14.13
2023-04-17T14:07:47.148Z,14.13
2023-04-17T14:10:15.699Z,14.08
2023-04-17T14:12:44.169Z,13.97
2023-04-17T14:15:13.275Z,13.90
2023-04-17T14:17:43.395Z,13.86
2023-04-17T14:20:12.675Z,13.82
2023-04-17T14:22:41.069Z,13.77
2023-04-17T14:25:09.661Z,13.74
2023-04-17T14:27:38.547Z,13.69
2023-04-17T14:30:07.760Z,13.65
2023-04-17T14:32:38.558Z,13.63
2023-04-17T14:35:07.543Z,13.61
2023-04-17T14:37:36.052Z,13.61
2023-04-17T14:40:04.950Z,13.59
2023-04-17T14:42:40.791Z,13.57
2023-04-17T14:45:19.026Z,13.58
2023-04-17T14:47:47.091Z,13.58
2023-04-17T14:50:15.071Z,13.56
2023-04-17T14:52:43.333Z,13.55
2023-04-17T14:55:12.381Z,13.55
2023-04-17T14:57:40.695Z,13.53
2023-04-17T15:00:09.447Z,13.53
2023-04-17T15:02:39.379Z,13.51
2023-04-17T15:05:08.294Z,13.48
2023-04-17T15:07:36.846Z,13.48
2023-04-17T15:10:05.717Z,13.49
2023-04-17T15:12:34.264Z,13.50
2023-04-17T15:15:02.314Z,13.50
2023-04-17T15:17:30.911Z,13.49
2023-04-17T15:20:00.859Z,13.47
2023-04-17T15:22:29.196Z,13.45
2023-04-17T15:24:57.319Z,13.41
2023-04-17T15:27:25.664Z,13.40
2023-04-17T15:29:53.606Z,13.41
2023-04-17T15:32:21.692Z,13.41
2023-04-17T15:34:49.907Z,13.40
2023-04-17T15:37:17.947Z,13.40
2023-04-17T15:39:46.312Z,13.40
2023-04-17T15:42:14.392Z,13.42
2023-04-17T15:44:42.713Z,13.42
2023-04-17T15:47:10.801Z,13.41
2023-04-17T15:49:39.015Z,13.40
2023-04-17T15:52:07.198Z,13.38
2023-04-17T15:54:35.729Z,13.37
2023-04-17T15:57:03.947Z,13.35
2023-04-17T15:59:33.433Z,13.35
2023-04-17T16:02:01.722Z,13.35
2023-04-17T16:04:30.657Z,13.35
2023-04-17T16:06:58.656Z,13.32
2023-04-17T16:09:27.065Z,13.30
2023-04-17T16:11:55.397Z,13.27
2023-04-17T16:14:23.637Z,13.23
2023-04-17T16:16:51.707Z,13.20
2023-04-17T16:19:20.326Z,13.13
2023-04-17T16:21:48.391Z,13.04
2023-04-17T16:24:16.613Z,12.95
2023-04-17T16:26:44.707Z,12.88
2023-04-17T16:29:12.787Z,12.80
2023-04-17T16:31:41.412Z,12.75
2023-04-17T16:34:09.638Z,12.70
2023-04-17T16:36:37.733Z,12.65
2023-04-17T16:39:08.242Z,12.62
2023-04-17T16:41:36.346Z,12.58
2023-04-17T16:44:04.484Z,12.54
2023-04-17T16:46:45.669Z,12.46
2023-04-17T16:49:20.696Z,12.40
2023-04-17T16:51:48.717Z,12.33
2023-04-17T16:54:16.890Z,12.30
2023-04-17T16:56:44.921Z,12.22
2023-04-17T16:59:13.397Z,12.18
2023-04-17T17:01:41.808Z,12.13
2023-04-17T17:04:09.889Z,12.11
2023-04-17T17:06:37.996Z,12.09
2023-04-17T17:09:06.796Z,12.10
2023-04-17T17:11:34.787Z,12.05
2023-04-17T17:14:03.272Z,11.98
2023-04-17T17:16:31.697Z,11.92
2023-04-17T17:19:00.321Z,11.90
2023-04-17T17:21:29.072Z,11.90
2023-04-17T17:23:57.099Z,11.88
2023-04-17T17:26:25.294Z,11.86
2023-04-17T17:28:53.660Z,11.84
2023-04-17T17:31:21.639Z,11.83
2023-04-17T17:33:54.153Z,11.81
2023-04-17T17:36:22.185Z,11.79
2023-04-17T17:38:55.701Z,11.79
2023-04-17T17:41:24.184Z,11.78
2023-04-17T17:43:52.325Z,11.75
2023-04-17T17:46:21.312Z,11.72
2023-04-17T17:48:49.575Z,11.73
2023-04-17T17:51:17.578Z,11.75
2023-04-17T17:53:45.636Z,11.76
2023-04-17T17:56:13.967Z,11.78
2023-04-17T17:58:42.107Z,11.79
2023-04-17T18:01:10.118Z,11.80
2023-04-17T18:03:38.649Z,11.81
2023-04-17T18:06:06.677Z,11.81
2023-04-17T18:08:34.823Z,11.80
2023-04-17T18:11:02.974Z,11.78
2023-04-17T18:13:31.476Z,11.77
2023-04-17T18:16:04.232Z,11.74
2023-04-17T18:18:32.795Z,11.71
2023-04-17T18:21:00.783Z,11.68
2023-04-17T18:23:29.841Z,11.66
2023-04-17T18:25:58.963Z,11.66
2023-04-17T18:28:27.343Z,11.66
2023-04-17T18:30:55.335Z,11.65
2023-04-17T18:33:23.578Z,11.66
2023-04-17T18:35:52.722Z,11.67
2023-04-17T18:38:21.340Z,11.67
2023-04-17T18:41:01.071Z,11.66
2023-04-17T18:43:29.164Z,11.63
2023-04-17T18:45:57.472Z,11.58
2023-04-17T18:48:25.542Z,11.55
2023-04-17T18:50:53.692Z,11.54
2023-04-17T18:53:21.800Z,11.52
2023-04-17T18:55:49.655Z,11.50
2023-04-17T18:58:18.129Z,11.50
2023-04-17T19:00:46.251Z,11.50
2023-04-17T19:03:14.274Z,11.50
2023-04-17T19:05:42.442Z,11.49
2023-04-17T19:08:10.526Z,11.47
2023-04-17T19:10:40.006Z,11.48
2023-04-17T19:13:09.983Z,11.48
2023-04-17T19:15:38.165Z,11.48
2023-04-17T19:18:06.936Z,11.45
2023-04-17T19:20:36.499Z,11.41
2023-04-17T19:23:04.672Z,11.38
2023-04-17T19:25:32.762Z,11.36
2023-04-17T19:28:00.752Z,11.34
2023-04-17T19:30:28.763Z,11.32
2023-04-17T19:32:57.154Z,11.31
2023-04-17T19:35:26.620Z,11.31
2023-04-17T19:37:54.525Z,11.30
2023-04-17T19:40:25.444Z,11.28
2023-04-17T19:42:54.362Z,11.28
2023-04-17T19:45:22.313Z,11.30
2023-04-17T19:47:56.261Z,11.32
2023-04-17T19:50:27.055Z,11.34
2023-04-17T19:52:55.792Z,11.36
2023-04-17T19:55:23.743Z,11.38
2023-04-17T19:57:52.279Z,11.37
2023-04-17T20:00:20.381Z,11.36
2023-04-17T20:02:48.872Z,11.38
2023-04-17T20:05:18.507Z,11.39
2023-04-17T20:07:47.036Z,11.39
2023-04-17T20:10:17.130Z,11.40
2023-04-17T20:12:45.194Z,11.42
2023-04-17T20:15:13.021Z,11.41
2023-04-17T20:17:41.298Z,11.42
2023-04-17T20:20:09.875Z,11.43
2023-04-17T20:22:39.705Z,11.44
2023-04-17T20:25:08.047Z,11.46
2023-04-17T20:27:36.319Z,11.48
2023-04-17T20:30:04.617Z,11.50
2023-04-17T20:32:33.412Z,11.51
2023-04-17T20:35:02.785Z,11.52
2023-04-17T20:37:31.422Z,11.53
2023-04-17T20:39:59.714Z,11.55
2023-04-17T20:42:27.755Z,11.56
2023-04-17T20:44:55.720Z,11.58
2023-04-17T20:47:24.007Z,11.58
2023-04-17T20:49:51.973Z,11.59
2023-04-17T20:52:20.058Z,11.59
2023-04-17T20:54:48.111Z,11.56
2023-04-17T20:57:16.141Z,11.54
2023-04-17T20:59:44.056Z,11.51
2023-04-17T21:02:12.389Z,11.47
2023-04-17T21:04:41.079Z,11.42
2023-04-17T21:07:09.424Z,11.36
2023-04-17T21:09:37.786Z,11.30
2023-04-17T21:12:06.649Z,11.25
2023-04-17T21:14:36.221Z,11.19
2023-04-17T21:17:04.339Z,11.12
2023-04-17T21:19:35.654Z,11.06
2023-04-17T21:22:04.287Z,10.99
2023-04-17T21:24:32.783Z,10.96
2023-04-17T21:27:01.488Z,10.90
2023-04-17T21:29:29.834Z,10.85
2023-04-17T21:31:58.058Z,10.79
2023-04-17T21:34:26.291Z,10.72
2023-04-17T21:36:54.534Z,10.69
2023-04-17T21:39:22.474Z,10.65
2023-04-17T21:41:50.712Z,10.60
2023-04-17T21:44:18.672Z,10.57
2023-04-17T21:46:46.721Z,10.55
2023-04-17T21:49:15.138Z,10.53
2023-04-17T21:51:43.130Z,10.53
2023-04-17T21:54:11.444Z,10.50
2023-04-17T21:56:39.818Z,10.48
2023-04-17T21:59:07.860Z,10.44
2023-04-17T22:01:35.847Z,10.42
2023-04-17T22:04:04.051Z,10.42
2023-04-17T22:06:36.272Z,10.39
2023-04-17T22:09:04.989Z,10.34
2023-04-17T22:11:33.035Z,10.30
2023-04-17T22:14:01.336Z,10.26
2023-04-17T22:16:29.585Z,10.22
2023-04-17T22:18:57.648Z,10.20
2023-04-17T22:21:27.068Z,10.19
2023-04-17T22:23:55.277Z,10.19
2023-04-17T22:26:23.418Z,10.17
2023-04-17T22:28:51.405Z,10.15
2023-04-17T22:31:19.599Z,10.16
2023-04-17T22:33:47.739Z,10.15
2023-04-17T22:36:15.656Z,10.13
2023-04-17T22:40:42.673Z,10.13
2023-04-17T22:43:10.740Z,10.13
2023-04-17T22:45:38.880Z,10.16
2023-04-17T22:48:07.063Z,10.20
2023-04-17T22:50:35.220Z,10.22
2023-04-17T22:53:03.892Z,10.23
2023-04-17T22:55:31.762Z,10.25
2023-04-17T22:58:01.405Z,10.29
2023-04-17T23:00:30.348Z,10.33
2023-04-17T23:02:58.590Z,10.36
2023-04-17T23:05:26.602Z,10.41
2023-04-17T23:07:54.588Z,10.44
2023-04-17T23:10:22.586Z,10.46
2023-04-17T23:12:50.713Z,10.45
2023-04-17T23:15:18.639Z,10.45
2023-04-17T23:17:46.689Z,10.47
2023-04-17T23:20:14.701Z,10.49
2023-04-17T23:22:42.701Z,10.51
2023-04-17T23:25:10.786Z,10.53
2023-04-17T23:27:39.068Z,10.56
2023-04-17T23:30:08.434Z,10.54
2023-04-17T23:32:36.983Z,10.54
2023-04-17T23:35:06.512Z,10.53
2023-04-17T23:37:34.940Z,10.54
2023-04-17T23:40:03.036Z,10.55
2023-04-17T23:42:31.397Z,10.54
2023-04-17T23:44:59.496Z,10.49
2023-04-17T23:47:27.725Z,10.42
2023-04-17T23:49:55.672Z,10.39
2023-04-17T23:52:23.801Z,10.35
2023-04-17T23:54:51.760Z,10.32
2023-04-17T23:57:19.784Z,10.31
2023-04-17T23:59:48.246Z,10.31
